Beaver Island, Michigan
Current Conditions -  °F | °C
As of 3:16 PM on Wednesday 28 Jan 2015 (Local Time) from KSJX Reporting Station
Scattered Clouds Scattered Clouds  
Wind Chill: 22°   Ceiling: Unl
Heat Index: 28°   Visibility: 10mi
Dew Point: 19°   Wind: 6mph
Humidity: 69%   Direction: 140°SE
Pressure: 30.15"   Gusts: NA
Location:  45.64°N, 85.52°W
Report Text: KSJX 282016Z AUTO 14005KT 10SM SCT110 M02/M07 A3015 RMK AO2 T10231073
Loading
Personal Weather Stations






























Interactive Weather Map New forecast layout! Learn more

10-Day Weather Forecast

Advertisements
Track Severe Weather on mobile